Time;durP1;ratioP1;P1;durP2;ratioP2;P2;SDS_P1;SDS_P2;PMS_P1;PMS_P2;Temp;Humidity;BMP_temperature;BMP_pressure;BME280_temperature;BME280_humidity;BME280_pressure;Samples;Min_cycle;Max_cycle;Signal;HPM_P1;HPM_P2
2022/09/10 00:01:41;;;;;;;;;;;14.60;99.90;;;;;;5104222;27;19927;-90
2022/09/10 00:04:12;;;;;;;;;;;14.80;99.90;;;;;;5106987;27;19923;-90
2022/09/10 00:06:38;;;;;;;;;;;14.90;99.90;;;;;;5126057;27;19927;-92
2022/09/10 00:09:04;;;;;;;;;;;14.70;99.90;;;;;;5119730;27;20430;-90
2022/09/10 00:11:39;;;;;;;;;;;14.50;99.90;;;;;;5102251;27;19934;-90
2022/09/10 00:14:05;;;;;;;;;;;13.50;99.90;;;;;;5119778;27;19923;-90
2022/09/10 00:16:31;;;;;;;;;;;14.90;99.90;;;;;;5106529;27;19934;-91
2022/09/10 00:19:08;;;;;;;;;;;14.90;99.90;;;;;;5122863;27;19923;-90
2022/09/10 00:21:36;;;;;;;;;;;15.80;99.90;;;;;;5123281;27;19923;-90
2022/09/10 00:24:04;;;;;;;;;;;14.70;99.90;;;;;;5104841;27;20285;-90
2022/09/10 00:26:41;;;;;;;;;;;;;;;;;;;;;
2022/09/10 00:29:17;;;;;;;;;;;14.70;99.90;;;;;;5122911;27;20386;-90
2022/09/10 00:31:50;;;;;;;;;;;14.60;99.90;;;;;;5105653;27;19927;-88
2022/09/10 00:34:17;;;;;;;;;;;14.80;99.90;;;;;;5104106;27;19926;-89
2022/09/10 00:36:45;;;;;;;;;;;14.70;99.90;;;;;;5104777;27;19979;-90
2022/09/10 00:39:18;;;;;;;;;;;14.60;99.90;;;;;;5121208;27;19927;-91
2022/09/10 00:41:51;;;;;;;;;;;14.80;99.90;;;;;;5105730;27;20348;-92
2022/09/10 00:44:44;;;;;;;;;;;14.80;99.90;;;;;;5106197;27;19976;-90
2022/09/10 00:47:16;;;;;;;;;;;15.10;99.90;;;;;;5121649;27;19927;-90
2022/09/10 00:49:56;;;;;;;;;;;15.60;99.90;;;;;;5122271;27;19966;-89
2022/09/10 00:52:22;;;;;;;;;;;14.00;99.90;;;;;;5104929;27;19993;-92
2022/09/10 00:54:52;;;;;;;;;;;14.80;99.90;;;;;;5103710;27;19927;-90
2022/09/10 00:57:28;;;;;;;;;;;14.70;99.90;;;;;;5121160;27;20003;-91
2022/09/10 01:00:08;;;;;;;;;;;14.80;99.90;;;;;;5122280;27;19923;-91
2022/09/10 01:02:41;;;;;;;;;;;14.70;99.90;;;;;;5123131;27;20013;-91
2022/09/10 01:05:08;;;;;;;;;;;15.10;99.90;;;;;;5123400;27;19922;-92
2022/09/10 01:07:36;;;;;;;;;;;14.90;99.90;;;;;;5105284;27;20018;-91
2022/09/10 01:10:17;;;;;;;;;;;14.70;99.90;;;;;;5121262;27;19923;-91
2022/09/10 01:12:55;;;;;;;;;;;14.90;99.90;;;;;;5105143;27;20021;-90
2022/09/10 01:15:43;;;;;;;;;;;14.70;99.90;;;;;;5103983;27;19931;-92
2022/09/10 01:18:20;;;;;;;;;;;14.90;99.90;;;;;;5105062;27;19923;-92
2022/09/10 01:21:04;;;;;;;;;;;14.90;99.90;;;;;;5104605;27;19987;-92
2022/09/10 01:23:57;;;;;;;;;;;14.80;99.90;;;;;;5104013;27;19922;-91
2022/09/10 01:26:50;;;;;;;;;;;15.00;99.90;;;;;;5121269;27;19923;-92
2022/09/10 01:29:19;;;;;;;;;;;13.30;99.90;;;;;;5109662;27;19973;-91
2022/09/10 01:31:48;;;;;;;;;;;14.70;99.90;;;;;;5108575;27;20010;-92
2022/09/10 01:34:27;;;;;;;;;;;14.80;99.90;;;;;;5108414;27;19934;-90
2022/09/10 01:36:55;;;;;;;;;;;14.80;99.90;;;;;;5123814;27;20066;-91
2022/09/10 01:39:24;;;;;;;;;;;14.90;99.90;;;;;;5107128;27;19933;-91
2022/09/10 01:41:55;;;;;;;;;;;14.40;99.90;;;;;;5103931;27;20297;-91
2022/09/10 01:44:39;;;;;;;;;;;15.30;99.90;;;;;;5103797;27;19934;-90
2022/09/10 01:47:13;;;;;;;;;;;15.00;99.90;;;;;;5120695;27;19930;-92
2022/09/10 01:49:44;;;;;;;;;;;15.00;99.90;;;;;;5105650;27;19976;-91
2022/09/10 01:52:21;;;;;;;;;;;;;;;;;;;;;
2022/09/10 01:55:07;;;;;;;;;;;15.10;99.90;;;;;;5137329;27;19945;-93
2022/09/10 01:57:54;;;;;;;;;;;15.00;99.90;;;;;;5089402;27;19923;-90
2022/09/10 02:00:25;;;;;;;;;;;14.90;99.90;;;;;;5137695;27;19923;-93
2022/09/10 02:02:56;;;;;;;;;;;15.00;99.90;;;;;;5137423;27;19931;-91
2022/09/10 02:05:27;;;;;;;;;;;15.10;99.90;;;;;;5137020;27;19926;-93
2022/09/10 02:07:57;;;;;;;;;;;15.00;99.90;;;;;;5104590;27;19927;-92
2022/09/10 02:10:23;;;;;;;;;;;15.10;99.90;;;;;;5103251;27;19944;-92
2022/09/10 02:12:51;;;;;;;;;;;15.10;99.90;;;;;;5119588;27;19927;-92
2022/09/10 02:15:17;;;;;;;;;;;15.00;99.90;;;;;;5103466;27;19923;-91
2022/09/10 02:17:46;;;;;;;;;;;15.00;99.90;;;;;;5121248;27;19923;-91
2022/09/10 02:20:20;;;;;;;;;;;15.00;99.90;;;;;;5120968;27;19942;-91
2022/09/10 02:22:54;;;;;;;;;;;15.20;99.90;;;;;;5119652;27;20001;-93
2022/09/10 02:25:23;;;;;;;;;;;15.10;99.90;;;;;;5105259;27;19923;-91
2022/09/10 02:27:56;;;;;;;;;;;16.10;99.90;;;;;;5114626;27;19907;-92
2022/09/10 02:30:23;;;;;;;;;;;14.90;99.90;;;;;;5104546;27;20313;-92
2022/09/10 02:32:51;;;;;;;;;;;15.00;99.90;;;;;;5103072;27;19924;-91
2022/09/10 02:35:19;;;;;;;;;;;14.10;99.90;;;;;;5102395;27;19931;-93
2022/09/10 02:37:49;;;;;;;;;;;15.00;99.90;;;;;;5103508;27;19927;-92
2022/09/10 02:40:18;;;;;;;;;;;15.00;99.90;;;;;;5105128;27;20025;-91
2022/09/10 02:42:46;;;;;;;;;;;15.00;99.90;;;;;;5104460;27;20417;-90
2022/09/10 02:45:13;;;;;;;;;;;15.20;99.90;;;;;;5102934;27;19989;-92
2022/09/10 02:47:38;;;;;;;;;;;15.30;99.90;;;;;;5102921;27;20291;-92
2022/09/10 02:50:07;;;;;;;;;;;15.60;99.90;;;;;;5119943;27;19930;-92
2022/09/10 02:52:40;;;;;;;;;;;15.00;99.90;;;;;;5119286;27;19931;-92
2022/09/10 02:55:09;;;;;;;;;;;15.20;99.90;;;;;;5121202;27;19938;-92
2022/09/10 02:57:34;;;;;;;;;;;15.20;99.90;;;;;;5113245;27;20320;-92
2022/09/10 03:00:18;;;;;;;;;;;13.40;99.90;;;;;;5125476;27;19927;-90
2022/09/10 03:02:45;;;;;;;;;;;15.40;99.90;;;;;;5127834;27;19923;-90
2022/09/10 03:05:11;;;;;;;;;;;15.20;99.90;;;;;;5117229;27;20434;-88
2022/09/10 03:07:39;;;;;;;;;;;15.10;99.90;;;;;;5116566;27;19927;-89
2022/09/10 03:10:05;;;;;;;;;;;15.40;99.90;;;;;;5147807;27;19923;-88
2022/09/10 03:12:38;;;;;;;;;;;15.20;99.90;;;;;;5126325;27;19927;-89
2022/09/10 03:15:04;;;;;;;;;;;15.10;99.90;;;;;;5106152;27;20282;-91
2022/09/10 03:17:29;;;;;;;;;;;14.00;99.90;;;;;;5122950;27;19923;-91
2022/09/10 03:20:05;;;;;;;;;;;15.50;99.90;;;;;;5109658;27;19930;-92
2022/09/10 03:22:33;;;;;;;;;;;14.70;99.90;;;;;;5131757;27;19966;-90
2022/09/10 03:25:01;;;;;;;;;;;15.20;99.90;;;;;;5131270;27;20413;-89
2022/09/10 03:27:30;;;;;;;;;;;15.20;99.90;;;;;;5128834;27;19934;-90
2022/09/10 03:29:58;;;;;;;;;;;15.00;99.90;;;;;;5147617;27;19924;-88
2022/09/10 03:32:23;;;;;;;;;;;15.00;99.90;;;;;;5106364;27;19923;-91
2022/09/10 03:34:49;;;;;;;;;;;15.00;99.90;;;;;;5122031;27;19930;-94
2022/09/10 03:37:15;;;;;;;;;;;14.90;99.90;;;;;;5119858;27;20030;-89
2022/09/10 03:39:58;;;;;;;;;;;15.20;99.90;;;;;;5101660;27;20289;-92
2022/09/10 03:42:24;;;;;;;;;;;15.40;99.90;;;;;;5122130;27;19923;-90
2022/09/10 03:44:49;;;;;;;;;;;14.90;99.90;;;;;;5119536;27;19950;-90
2022/09/10 03:47:15;;;;;;;;;;;15.00;99.90;;;;;;5102117;27;20247;-92
2022/09/10 03:49:41;;;;;;;;;;;15.20;99.90;;;;;;5102950;27;19927;-94
2022/09/10 03:52:11;;;;;;;;;;;14.20;99.90;;;;;;5118269;27;20029;-94
2022/09/10 03:54:39;;;;;;;;;;;15.10;99.90;;;;;;5130367;27;19991;-93
2022/09/10 03:57:05;;;;;;;;;;;15.70;99.90;;;;;;5130934;27;20014;-92
2022/09/10 03:59:33;;;;;;;;;;;16.60;99.90;;;;;;5119189;27;19963;-93
2022/09/10 04:01:59;;;;;;;;;;;15.10;99.90;;;;;;5131512;27;19949;-93
2022/09/10 04:04:30;;;;;;;;;;;15.10;99.90;;;;;;5138713;27;19927;-92
2022/09/10 04:06:59;;;;;;;;;;;15.10;99.90;;;;;;5126188;27;19923;-91
2022/09/10 04:09:32;;;;;;;;;;;15.00;99.90;;;;;;5132065;27;19927;-92
2022/09/10 04:11:58;;;;;;;;;;;14.90;99.90;;;;;;5124157;27;19923;-90
2022/09/10 04:14:25;;;;;;;;;;;15.10;99.90;;;;;;5117274;27;19924;-91
2022/09/10 04:16:51;;;;;;;;;;;16.20;99.90;;;;;;5142108;27;19931;-91
2022/09/10 04:19:26;;;;;;;;;;;15.00;99.90;;;;;;5134698;27;19930;-92
2022/09/10 04:21:51;;;;;;;;;;;15.00;99.90;;;;;;5126333;27;19923;-91
2022/09/10 04:24:20;;;;;;;;;;;15.00;99.90;;;;;;5107447;27;19931;-91
2022/09/10 04:26:49;;;;;;;;;;;14.90;99.90;;;;;;5107920;27;20017;-92
2022/09/10 04:29:25;;;;;;;;;;;;;;;;;;;;;
2022/09/10 04:31:51;;;;;;;;;;;15.10;99.90;;;;;;5125202;27;20036;-92
2022/09/10 04:34:17;;;;;;;;;;;15.00;99.90;;;;;;5106611;27;19923;-92
2022/09/10 04:36:45;;;;;;;;;;;15.10;99.90;;;;;;5124138;27;19959;-89
2022/09/10 04:39:13;;;;;;;;;;;15.10;99.90;;;;;;5139292;27;19927;-90
2022/09/10 04:41:39;;;;;;;;;;;14.50;99.90;;;;;;5121838;27;19988;-90
2022/09/10 04:44:18;;;;;;;;;;;15.00;99.90;;;;;;5105100;27;20374;-90
2022/09/10 04:46:44;;;;;;;;;;;14.00;99.90;;;;;;5139046;27;19923;-91
2022/09/10 04:49:12;;;;;;;;;;;15.00;99.90;;;;;;5138692;27;20547;-90
2022/09/10 04:51:43;;;;;;;;;;;15.10;99.90;;;;;;5139217;27;19923;-91
2022/09/10 04:54:17;;;;;;;;;;;14.90;99.90;;;;;;5121791;27;20359;-92
2022/09/10 04:56:44;;;;;;;;;;;14.90;99.90;;;;;;5122781;27;19923;-91
2022/09/10 04:59:17;;;;;;;;;;;15.20;99.90;;;;;;5105064;27;19934;-92
2022/09/10 05:01:43;;;;;;;;;;;14.90;99.90;;;;;;5120913;27;19927;-91
2022/09/10 05:04:18;;;;;;;;;;;14.90;99.90;;;;;;5103852;27;20074;-92
2022/09/10 05:06:50;;;;;;;;;;;15.10;99.90;;;;;;5122582;27;20407;-91
2022/09/10 05:09:16;;;;;;;;;;;14.90;99.90;;;;;;5138221;27;19930;-91
2022/09/10 05:11:45;;;;;;;;;;;15.00;99.90;;;;;;5120846;27;19934;-89
2022/09/10 05:14:17;;;;;;;;;;;15.00;99.90;;;;;;5122105;27;19934;-90
2022/09/10 05:16:54;;;;;;;;;;;15.40;99.90;;;;;;5103887;27;19927;-91
2022/09/10 05:19:22;;;;;;;;;;;15.00;99.90;;;;;;5121741;27;19923;-91
2022/09/10 05:21:47;;;;;;;;;;;15.10;99.90;;;;;;5120653;27;19923;-92
2022/09/10 05:24:13;;;;;;;;;;;16.10;99.90;;;;;;5103979;27;19945;-91
2022/09/10 05:26:44;;;;;;;;;;;15.20;99.90;;;;;;5103896;27;20349;-90
2022/09/10 05:29:12;;;;;;;;;;;15.20;99.90;;;;;;5104921;27;20373;-90
2022/09/10 05:31:39;;;;;;;;;;;15.10;99.90;;;;;;5105524;27;19927;-91
2022/09/10 05:34:05;;;;;;;;;;;15.10;99.90;;;;;;5122010;27;20327;-90
2022/09/10 05:36:35;;;;;;;;;;;14.30;99.90;;;;;;5104348;27;19927;-91
2022/09/10 05:39:03;;;;;;;;;;;15.20;99.90;;;;;;5121408;27;20013;-92
2022/09/10 05:41:29;;;;;;;;;;;15.10;99.90;;;;;;5121127;27;19923;-90
2022/09/10 05:43:56;;;;;;;;;;;14.20;99.90;;;;;;5120321;27;19930;-90
2022/09/10 05:46:24;;;;;;;;;;;14.00;99.90;;;;;;5103280;27;19927;-91
2022/09/10 05:48:49;;;;;;;;;;;15.30;99.90;;;;;;5103936;27;19974;-92
2022/09/10 05:51:28;;;;;;;;;;;;;;;;;;;;;
2022/09/10 05:54:02;;;;;;;;;;;15.40;99.90;;;;;;5137424;27;19934;-90
2022/09/10 05:56:33;;;;;;;;;;;15.60;99.90;;;;;;5103423;27;19968;-91
2022/09/10 05:59:02;;;;;;;;;;;15.20;99.90;;;;;;5104873;27;19923;-93
2022/09/10 06:01:30;;;;;;;;;;;15.20;99.90;;;;;;5120468;27;19927;-91
2022/09/10 06:04:14;;;;;;;;;;;15.20;99.90;;;;;;5103946;27;19927;-90
2022/09/10 06:06:42;;;;;;;;;;;15.50;99.90;;;;;;5105313;27;20367;-91
2022/09/10 06:09:08;;;;;;;;;;;15.50;99.90;;;;;;5107795;27;19938;-91
2022/09/10 06:11:36;;;;;;;;;;;15.30;99.90;;;;;;5104929;27;19970;-90
2022/09/10 06:14:04;;;;;;;;;;;15.40;99.90;;;;;;5103563;27;20017;-88
2022/09/10 06:16:32;;;;;;;;;;;14.50;99.90;;;;;;5107374;27;20014;-91
2022/09/10 06:19:00;;;;;;;;;;;15.60;99.90;;;;;;5102871;27;19934;-90
2022/09/10 06:21:28;;;;;;;;;;;15.30;99.90;;;;;;5103212;27;19923;-89
2022/09/10 06:23:56;;;;;;;;;;;15.10;99.90;;;;;;5103407;27;20302;-91
2022/09/10 06:26:25;;;;;;;;;;;16.60;99.90;;;;;;5121571;27;19923;-91
2022/09/10 06:29:11;;;;;;;;;;;15.40;99.90;;;;;;5103732;27;20346;-92
2022/09/10 06:31:36;;;;;;;;;;;15.40;99.90;;;;;;5119668;27;19923;-91
2022/09/10 06:34:07;;;;;;;;;;;15.40;99.90;;;;;;5102650;27;20411;-90
2022/09/10 06:36:46;;;;;;;;;;;15.40;99.90;;;;;;5136572;27;19926;-91
2022/09/10 06:39:17;;;;;;;;;;;15.50;99.90;;;;;;5104387;27;19927;-90
2022/09/10 06:41:45;;;;;;;;;;;15.50;99.90;;;;;;5103492;27;19930;-91
2022/09/10 06:44:13;;;;;;;;;;;15.40;99.90;;;;;;5121596;27;20527;-91
2022/09/10 06:46:44;;;;;;;;;;;15.30;99.90;;;;;;5122199;27;20367;-90
2022/09/10 06:49:12;;;;;;;;;;;15.30;99.90;;;;;;5120657;27;20018;-92
2022/09/10 06:51:38;;;;;;;;;;;14.80;99.90;;;;;;5104063;27;19923;-90
2022/09/10 06:54:04;;;;;;;;;;;15.30;99.90;;;;;;5103161;27;20378;-91
2022/09/10 06:56:32;;;;;;;;;;;16.50;99.90;;;;;;5120200;27;20045;-91
2022/09/10 06:59:03;;;;;;;;;;;15.60;99.90;;;;;;5102524;27;20279;-90
2022/09/10 07:01:28;;;;;;;;;;;15.50;99.90;;;;;;5102808;27;19923;-91
2022/09/10 07:03:57;;;;;;;;;;;15.60;99.90;;;;;;5102631;27;19923;-90
2022/09/10 07:06:23;;;;;;;;;;;16.00;99.90;;;;;;5104173;27;19923;-91
2022/09/10 07:08:52;;;;;;;;;;;15.60;99.90;;;;;;5119466;27;19930;-92
2022/09/10 07:11:18;;;;;;;;;;;15.60;99.90;;;;;;5120186;27;19927;-89
2022/09/10 07:13:43;;;;;;;;;;;15.70;99.90;;;;;;5109740;27;20413;-89
2022/09/10 07:16:14;;;;;;;;;;;15.90;99.90;;;;;;5127532;27;20018;-89
2022/09/10 07:18:40;;;;;;;;;;;15.70;99.90;;;;;;5123590;27;19931;-89
2022/09/10 07:21:06;;;;;;;;;;;15.70;99.90;;;;;;5142108;27;19923;-88
2022/09/10 07:23:34;;;;;;;;;;;15.70;99.90;;;;;;5119878;27;19931;-89
2022/09/10 07:26:10;;;;;;;;;;;15.80;99.90;;;;;;5125198;27;19954;-89
2022/09/10 07:28:38;;;;;;;;;;;16.50;99.90;;;;;;5133984;27;20010;-89
2022/09/10 07:31:12;;;;;;;;;;;15.70;99.90;;;;;;5131603;27;19931;-91
2022/09/10 07:33:38;;;;;;;;;;;15.70;99.90;;;;;;5136379;27;19923;-90
2022/09/10 07:36:05;;;;;;;;;;;15.90;99.90;;;;;;5115758;27;19934;-91
2022/09/10 07:38:33;;;;;;;;;;;15.70;99.90;;;;;;5125336;27;20010;-90
2022/09/10 07:40:59;;;;;;;;;;;15.80;99.90;;;;;;5141093;27;19931;-88
2022/09/10 07:43:29;;;;;;;;;;;15.70;99.90;;;;;;5123443;27;20403;-89
2022/09/10 07:45:57;;;;;;;;;;;16.00;99.90;;;;;;5140492;27;20378;-91
2022/09/10 07:48:24;;;;;;;;;;;15.80;99.90;;;;;;5159207;27;20278;-89
2022/09/10 07:51:04;;;;;;;;;;;14.20;99.90;;;;;;5137978;27;19930;-91
2022/09/10 07:53:32;;;;;;;;;;;15.90;99.90;;;;;;5138255;27;19930;-91
2022/09/10 07:55:59;;;;;;;;;;;16.10;99.90;;;;;;5128859;27;19927;-91
2022/09/10 07:58:28;;;;;;;;;;;15.90;99.90;;;;;;5108470;27;19942;-91
2022/09/10 08:00:56;;;;;;;;;;;16.00;99.90;;;;;;5125986;27;19924;-92
2022/09/10 08:03:28;;;;;;;;;;;16.10;99.90;;;;;;5112682;27;20397;-90
2022/09/10 08:05:54;;;;;;;;;;;16.10;99.90;;;;;;5121969;27;19976;-91
2022/09/10 08:08:33;;;;;;;;;;;;;;;;;;;;;
2022/09/10 08:11:05;;;;;;;;;;;16.80;99.90;;;;;;5132459;27;19934;-91
2022/09/10 08:13:34;;;;;;;;;;;16.30;99.90;;;;;;5124433;27;19958;-92
2022/09/10 08:15:59;;;;;;;;;;;16.00;99.90;;;;;;5132039;27;19927;-89
2022/09/10 08:18:25;;;;;;;;;;;14.20;99.90;;;;;;5117897;27;19964;-92
2022/09/10 08:20:58;;;;;;;;;;;16.10;99.90;;;;;;5114621;27;19927;-93
2022/09/10 08:23:26;;;;;;;;;;;16.10;99.90;;;;;;5130955;27;20013;-93
2022/09/10 08:25:55;;;;;;;;;;;15.30;99.90;;;;;;5106606;27;19972;-91
2022/09/10 08:28:26;;;;;;;;;;;16.20;99.90;;;;;;5106817;27;19975;-89
2022/09/10 08:31:02;;;;;;;;;;;16.30;99.90;;;;;;5107248;27;19923;-88
2022/09/10 08:33:31;;;;;;;;;;;16.60;99.90;;;;;;5130226;27;19922;-89
2022/09/10 08:35:57;;;;;;;;;;;16.40;99.90;;;;;;5141178;27;19923;-90
2022/09/10 08:38:28;;;;;;;;;;;16.40;99.90;;;;;;5124948;27;19977;-91
2022/09/10 08:40:58;;;;;;;;;;;16.60;99.90;;;;;;5134485;27;20398;-91
2022/09/10 08:43:41;;;;;;;;;;;16.90;99.90;;;;;;5124454;27;20394;-90
2022/09/10 08:46:15;;;;;;;;;;;17.30;99.90;;;;;;5105607;27;19923;-90
2022/09/10 08:48:42;;;;;;;;;;;16.80;99.90;;;;;;5133288;27;20002;-89
2022/09/10 08:51:19;;;;;;;;;;;16.90;99.90;;;;;;5106534;27;19930;-89
2022/09/10 08:53:56;;;;;;;;;;;17.10;99.90;;;;;;5119631;27;20005;-90
2022/09/10 08:56:30;;;;;;;;;;;17.30;99.90;;;;;;5110779;27;19992;-90
2022/09/10 08:59:03;;;;;;;;;;;17.40;99.90;;;;;;5128379;27;20391;-89
2022/09/10 09:01:31;;;;;;;;;;;16.00;99.90;;;;;;5119048;27;19982;-89
2022/09/10 09:03:56;;;;;;;;;;;17.70;99.90;;;;;;5156327;27;19927;-91
2022/09/10 09:06:24;;;;;;;;;;;17.80;99.90;;;;;;5115602;27;20310;-90
2022/09/10 09:08:49;;;;;;;;;;;18.30;99.90;;;;;;5130740;27;20445;-89
2022/09/10 09:11:35;;;;;;;;;;;17.30;99.90;;;;;;5127674;27;19927;-89
2022/09/10 09:14:19;;;;;;;;;;;18.10;99.90;;;;;;5131554;27;19927;-90
2022/09/10 09:16:45;;;;;;;;;;;18.20;99.90;;;;;;5158974;27;19954;-89
2022/09/10 09:19:13;;;;;;;;;;;18.30;99.90;;;;;;5146205;27;19958;-89
2022/09/10 09:25:07;;;;;;;;;;;;;;;;;;;;;
2022/09/10 09:27:59;;;;;;;;;;;18.20;99.90;;;;;;5171313;27;19927;-92
2022/09/10 09:30:35;;;;;;;;;;;18.20;99.90;;;;;;5126407;27;19930;-92
2022/09/10 09:33:14;;;;;;;;;;;16.80;99.90;;;;;;5137613;27;19934;-96
2022/09/10 09:35:52;;;;;;;;;;;18.10;99.90;;;;;;5149783;27;19918;-91
2022/09/10 09:38:23;;;;;;;;;;;18.50;99.90;;;;;;5138977;27;19923;-89
2022/09/10 09:40:50;;;;;;;;;;;18.20;99.90;;;;;;5148307;27;19931;-89
2022/09/10 09:43:35;;;;;;;;;;;18.40;99.90;;;;;;5131414;27;19934;-90
2022/09/10 09:46:00;;;;;;;;;;;18.40;99.90;;;;;;5154939;27;19927;-89
2022/09/10 09:48:27;;;;;;;;;;;18.50;99.90;;;;;;5117833;27;19983;-89
2022/09/10 09:50:53;;;;;;;;;;;18.90;99.90;;;;;;5111565;27;19988;-88
2022/09/10 09:53:25;;;;;;;;;;;18.70;99.90;;;;;;5119234;27;19923;-88
2022/09/10 09:55:57;;;;;;;;;;;19.10;99.90;;;;;;5142816;27;19931;-89
2022/09/10 09:58:23;;;;;;;;;;;19.20;99.90;;;;;;5130268;27;19923;-89
2022/09/10 10:01:04;;;;;;;;;;;19.30;99.90;;;;;;5128252;27;20375;-88
2022/09/10 10:03:30;;;;;;;;;;;19.20;99.90;;;;;;5130438;27;19943;-88
2022/09/10 10:06:02;;;;;;;;;;;19.40;99.90;;;;;;5116546;27;19923;-89
2022/09/10 10:08:36;;;;;;;;;;;19.40;99.90;;;;;;5111649;27;19935;-88
2022/09/10 10:11:05;;;;;;;;;;;19.40;99.90;;;;;;5123550;27;19923;-90
2022/09/10 10:13:36;;;;;;;;;;;19.40;99.90;;;;;;5118858;27;20117;-91
2022/09/10 10:16:15;;;;;;;;;;;19.50;99.90;;;;;;5129550;27;20233;-90
2022/09/10 10:18:41;;;;;;;;;;;20.10;99.90;;;;;;5123515;27;19934;-93
2022/09/10 10:24:09;;;;;;;;;;;19.30;99.90;;;;;;5122710;27;19927;-91
2022/09/10 10:26:34;;;;;;;;;;;19.30;99.90;;;;;;5102823;27;20253;-89
2022/09/10 10:29:02;;;;;;;;;;;19.40;99.90;;;;;;5120665;27;19931;-92
2022/09/10 10:31:36;;;;;;;;;;;19.60;99.90;;;;;;5102891;27;20013;-90
2022/09/10 10:34:24;;;;;;;;;;;19.80;99.90;;;;;;5102721;27;19930;-91
2022/09/10 10:40:21;;;;;;;;;;;19.80;99.90;;;;;;5101913;27;19966;-90
2022/09/10 10:42:56;;;;;;;;;;;19.00;99.90;;;;;;5137274;27;19971;-89
2022/09/10 10:45:47;;;;;;;;;;;;;;;;;;;;;
2022/09/10 10:48:33;;;;;;;;;;;19.90;99.90;;;;;;5141411;27;19945;-89
2022/09/10 10:51:21;;;;;;;;;;;19.70;99.90;;;;;;5144618;27;19923;-84
2022/09/10 10:54:08;;;;;;;;;;;19.70;99.90;;;;;;5099722;27;20398;-89
2022/09/10 10:56:35;;;;;;;;;;;19.70;99.90;;;;;;5118257;27;20214;-89
2022/09/10 10:59:40;;;;;;;;;;;19.60;99.90;;;;;;5118877;27;19930;-89
2022/09/10 11:02:27;;;;;;;;;;;18.60;99.90;;;;;;5054541;28;19935;-89
2022/09/10 11:04:53;;;;;;;;;;;19.50;99.90;;;;;;5060081;28;20010;-87
2022/09/10 11:07:31;;;;;;;;;;;19.60;99.90;;;;;;5102856;27;19974;-90
2022/09/10 11:10:05;;;;;;;;;;;19.60;99.90;;;;;;5130989;27;19982;-89
2022/09/10 11:12:32;;;;;;;;;;;19.40;99.90;;;;;;5111949;27;20289;-89
2022/09/10 11:15:00;;;;;;;;;;;19.00;99.90;;;;;;5105275;27;20006;-89
2022/09/10 11:17:38;;;;;;;;;;;20.20;99.90;;;;;;5110247;27;20350;-88
2022/09/10 11:20:06;;;;;;;;;;;20.30;99.90;;;;;;5123642;27;20426;-91
2022/09/10 11:22:33;;;;;;;;;;;20.30;99.90;;;;;;5132718;27;19923;-91
2022/09/10 11:25:09;;;;;;;;;;;19.60;99.90;;;;;;5120661;27;19923;-89
2022/09/10 11:27:39;;;;;;;;;;;20.10;99.90;;;;;;5121824;27;19930;-88
2022/09/10 11:30:05;;;;;;;;;;;20.20;99.90;;;;;;5113264;27;19923;-89
2022/09/10 11:32:31;;;;;;;;;;;21.60;99.90;;;;;;5104127;27;20390;-89
2022/09/10 11:35:08;;;;;;;;;;;20.20;99.90;;;;;;5136558;27;19950;-89
2022/09/10 11:37:42;;;;;;;;;;;19.90;99.90;;;;;;5121664;27;19923;-90
2022/09/10 11:40:18;;;;;;;;;;;20.40;99.90;;;;;;5103293;27;20090;-90
2022/09/10 11:42:51;;;;;;;;;;;20.10;99.90;;;;;;5100805;27;19923;-90
2022/09/10 11:45:18;;;;;;;;;;;20.30;99.90;;;;;;5118415;27;20232;-91
2022/09/10 11:47:56;;;;;;;;;;;20.60;99.90;;;;;;5121426;27;19923;-91
2022/09/10 11:50:24;;;;;;;;;;;20.60;99.90;;;;;;5106102;27;19936;-89
2022/09/10 11:52:52;;;;;;;;;;;19.50;99.90;;;;;;5133076;27;19930;-91
2022/09/10 11:55:17;;;;;;;;;;;20.50;99.90;;;;;;5120338;27;19923;-91
2022/09/10 11:58:00;;;;;;;;;;;20.40;99.90;;;;;;5116829;27;20336;-91
2022/09/10 12:00:28;;;;;;;;;;;20.60;99.90;;;;;;5145415;27;19974;-91
2022/09/10 12:03:02;;;;;;;;;;;20.60;99.90;;;;;;5122756;27;20380;-92
2022/09/10 12:05:31;;;;;;;;;;;20.80;99.90;;;;;;5118387;27;20393;-89
2022/09/10 12:08:03;;;;;;;;;;;20.40;99.90;;;;;;5117572;27;19927;-90
2022/09/10 12:10:33;;;;;;;;;;;20.60;99.90;;;;;;5135869;27;19934;-89
2022/09/10 12:12:59;;;;;;;;;;;20.70;99.90;;;;;;5136987;27;19930;-89
2022/09/10 12:15:33;;;;;;;;;;;20.60;99.90;;;;;;5139231;27;19923;-94
2022/09/10 12:18:05;;;;;;;;;;;20.90;99.90;;;;;;5118083;27;19923;-89
2022/09/10 12:20:33;;;;;;;;;;;20.70;99.90;;;;;;5143201;27;19929;-89
2022/09/10 12:22:58;;;;;;;;;;;20.60;99.90;;;;;;5124927;27;20345;-89
2022/09/10 12:25:28;;;;;;;;;;;20.80;99.90;;;;;;5110685;27;19927;-90
2022/09/10 12:27:57;;;;;;;;;;;20.80;99.90;;;;;;5106351;27;20420;-89
2022/09/10 12:30:25;;;;;;;;;;;20.80;99.90;;;;;;5122634;27;19931;-89
2022/09/10 12:32:56;;;;;;;;;;;20.80;99.90;;;;;;5121861;27;19985;-90
2022/09/10 12:35:36;;;;;;;;;;;20.60;99.90;;;;;;5138979;27;19927;-88
2022/09/10 12:38:23;;;;;;;;;;;19.90;99.90;;;;;;5138761;27;19968;-89
2022/09/10 12:40:49;;;;;;;;;;;20.70;99.90;;;;;;5137670;27;20390;-91
2022/09/10 12:43:33;;;;;;;;;;;20.90;99.90;;;;;;5121288;27;19927;-90
2022/09/10 12:46:00;;;;;;;;;;;21.10;99.90;;;;;;5120922;27;20336;-90
2022/09/10 12:48:28;;;;;;;;;;;20.90;99.90;;;;;;5103828;27;20302;-90
2022/09/10 12:50:59;;;;;;;;;;;20.90;99.90;;;;;;5120788;27;20441;-90
2022/09/10 12:53:31;;;;;;;;;;;21.00;99.90;;;;;;5120267;27;19934;-90
2022/09/10 12:56:01;;;;;;;;;;;21.10;99.90;;;;;;5120858;27;19922;-90
2022/09/10 12:58:29;;;;;;;;;;;20.80;99.90;;;;;;5120652;27;19923;-91
2022/09/10 13:00:57;;;;;;;;;;;20.80;99.90;;;;;;5120536;27;19927;-91
2022/09/10 13:03:23;;;;;;;;;;;20.90;99.90;;;;;;5120010;27;19923;-90
2022/09/10 13:05:52;;;;;;;;;;;20.80;99.90;;;;;;5119599;27;19953;-90
2022/09/10 13:08:24;;;;;;;;;;;20.70;99.90;;;;;;5137739;27;19923;-92
2022/09/10 13:11:00;;;;;;;;;;;20.70;99.90;;;;;;5121781;27;19923;-89
2022/09/10 13:13:47;;;;;;;;;;;21.10;99.90;;;;;;5120959;27;19923;-90
2022/09/10 13:16:14;;;;;;;;;;;21.00;99.90;;;;;;5138748;27;19966;-91
2022/09/10 13:18:42;;;;;;;;;;;22.00;99.90;;;;;;5120969;27;19952;-90
2022/09/10 13:21:23;;;;;;;;;;;21.10;99.90;;;;;;5104707;27;19930;-90
2022/09/10 13:23:52;;;;;;;;;;;21.40;99.90;;;;;;5136722;27;19970;-91
2022/09/10 13:26:29;;;;;;;;;;;20.90;99.90;;;;;;5123569;27;20017;-90
2022/09/10 13:29:02;;;;;;;;;;;21.40;99.90;;;;;;5120575;27;19927;-90
2022/09/10 13:31:39;;;;;;;;;;;22.90;99.90;;;;;;5120595;27;20030;-92
2022/09/10 13:34:14;;;;;;;;;;;21.30;99.90;;;;;;5122916;27;19927;-89
2022/09/10 13:36:43;;;;;;;;;;;21.30;99.90;;;;;;5120986;27;20013;-89
2022/09/10 13:39:19;;;;;;;;;;;21.40;99.90;;;;;;5120846;27;20361;-90
2022/09/10 13:41:51;;;;;;;;;;;21.90;99.90;;;;;;5138429;27;19974;-89
2022/09/10 13:44:26;;;;;;;;;;;22.00;99.90;;;;;;5122387;27;19974;-88
2022/09/10 13:46:53;;;;;;;;;;;21.10;99.90;;;;;;5140181;27;19927;-88
2022/09/10 13:49:45;;;;;;;;;;;21.10;99.90;;;;;;5106089;27;19922;-89
2022/09/10 13:52:11;;;;;;;;;;;21.30;99.90;;;;;;5137975;27;20021;-89
2022/09/10 13:54:37;;;;;;;;;;;21.30;99.90;;;;;;5118637;27;20019;-90
2022/09/10 13:57:06;;;;;;;;;;;21.20;99.90;;;;;;5102198;27;19931;-91
2022/09/10 13:59:32;;;;;;;;;;;20.80;99.90;;;;;;5102415;27;19978;-90
2022/09/10 14:01:58;;;;;;;;;;;22.60;99.90;;;;;;5118367;27;19927;-90
2022/09/10 14:04:37;;;;;;;;;;;20.90;99.90;;;;;;5136172;27;19929;-88
2022/09/10 14:07:14;;;;;;;;;;;20.80;99.90;;;;;;5116140;27;19923;-91
2022/09/10 14:09:43;;;;;;;;;;;20.70;99.90;;;;;;5110305;27;19926;-90
2022/09/10 14:12:09;;;;;;;;;;;20.70;99.90;;;;;;5110154;27;19923;-91
2022/09/10 14:14:37;;;;;;;;;;;20.70;99.90;;;;;;5122349;27;19949;-91
2022/09/10 14:17:24;;;;;;;;;;;19.80;99.90;;;;;;5104245;27;20427;-94
2022/09/10 14:19:51;;;;;;;;;;;19.50;99.90;;;;;;5124394;27;20013;-93
2022/09/10 14:22:21;;;;;;;;;;;21.00;99.90;;;;;;5120950;27;19930;-93
2022/09/10 14:25:01;;;;;;;;;;;21.00;99.90;;;;;;5112171;27;19982;-93
2022/09/10 14:27:27;;;;;;;;;;;21.20;99.90;;;;;;5137344;27;19927;-95
2022/09/10 14:29:56;;;;;;;;;;;21.10;99.90;;;;;;5119235;27;19930;-93
2022/09/10 14:32:27;;;;;;;;;;;21.40;99.90;;;;;;5119783;27;19971;-92
2022/09/10 14:34:52;;;;;;;;;;;21.40;99.90;;;;;;5116950;27;19923;-91
2022/09/10 14:37:27;;;;;;;;;;;21.20;99.90;;;;;;5117313;27;19926;-88
2022/09/10 14:39:53;;;;;;;;;;;21.10;99.90;;;;;;5118890;27;20369;-89
2022/09/10 14:42:26;;;;;;;;;;;20.70;99.90;;;;;;5116576;27;19982;-88
2022/09/10 14:44:52;;;;;;;;;;;21.30;99.90;;;;;;5150835;27;19934;-87
2022/09/10 14:47:36;;;;;;;;;;;21.30;99.90;;;;;;5133776;27;19927;-89
2022/09/10 14:50:20;;;;;;;;;;;21.40;99.90;;;;;;5116987;27;20343;-89
2022/09/10 14:52:46;;;;;;;;;;;22.30;99.90;;;;;;5130985;27;19956;-88
2022/09/10 14:55:15;;;;;;;;;;;22.00;99.90;;;;;;5111407;27;21353;-89
2022/09/10 14:57:42;;;;;;;;;;;22.00;99.90;;;;;;5136526;27;19927;-89